Time;durP1;ratioP1;P1;durP2;ratioP2;P2;SDS_P1;SDS_P2;PMS_P1;PMS_P2;Temp;Humidity;BMP_temperature;BMP_pressure;BME280_temperature;BME280_humidity;BME280_pressure;Samples;Min_cycle;Max_cycle;Signal;HPM_P1;HPM_P2
2021/06/20 00:01:08;;;;;;;17.48;14.85;;;29.20;67.80;;;;;;5091205;28;20043;-55
2021/06/20 00:03:52;;;;;;;17.65;13.60;;;29.20;67.90;;;;;;5091189;28;20035;-54
2021/06/20 00:06:38;;;;;;;15.20;13.60;;;29.20;68.40;;;;;;5091571;28;20575;-56
2021/06/20 00:09:22;;;;;;;17.55;13.65;;;29.20;68.70;;;;;;5083366;28;20084;-51
2021/06/20 00:12:07;;;;;;;16.25;12.07;;;29.30;70.00;;;;;;5092016;28;20789;-55
2021/06/20 00:14:52;;;;;;;17.55;13.57;;;29.20;69.70;;;;;;5093068;28;20128;-52
2021/06/20 00:17:37;;;;;;;14.68;12.65;;;29.20;70.10;;;;;;5092825;28;20027;-57
2021/06/20 00:20:25;;;;;;;14.63;12.80;;;29.10;70.80;;;;;;5092117;28;20070;-57
2021/06/20 00:23:09;;;;;;;15.90;13.35;;;29.00;71.30;;;;;;5081456;28;20438;-56
2021/06/20 00:25:54;;;;;;;14.50;13.02;;;29.00;71.30;;;;;;5093019;28;20039;-52
2021/06/20 00:28:38;;;;;;;;;;;28.90;71.20;;;;;;5093287;28;20031;-50
2021/06/20 00:31:22;;;;;;;17.83;12.68;;;28.80;71.80;;;;;;5092600;28;19961;-53
2021/06/20 00:34:06;;;;;;;19.73;13.68;;;28.70;72.00;;;;;;5092423;28;20166;-56
2021/06/20 00:36:50;;;;;;;;;;;28.60;72.70;;;;;;5092812;28;20566;-56
2021/06/20 00:39:34;;;;;;;16.00;14.13;;;28.40;73.50;;;;;;5092231;28;19915;-54
2021/06/20 00:42:22;;;;;;;17.17;14.10;;;28.30;73.90;;;;;;5092344;28;20525;-56
2021/06/20 00:45:07;;;;;;;17.83;14.68;;;28.20;74.20;;;;;;5074459;28;20115;-53
2021/06/20 00:47:56;;;;;;;16.73;15.05;;;28.20;74.60;;;;;;5083629;28;20097;-56
2021/06/20 00:50:40;;;;;;;17.75;15.95;;;28.10;74.80;;;;;;5092485;28;20069;-51
2021/06/20 00:53:25;;;;;;;17.17;15.55;;;28.20;75.10;;;;;;5092710;28;20395;-55
2021/06/20 00:56:09;;;;;;;23.33;16.73;;;28.20;74.70;;;;;;5092580;28;20039;-54
2021/06/20 00:59:01;;;;;;;;;;;28.30;74.10;;;;;;5093575;28;20063;-55
2021/06/20 01:01:46;;;;;;;19.77;17.63;;;28.30;74.10;;;;;;5093330;28;19966;-54
2021/06/20 01:04:30;;;;;;;22.40;16.52;;;28.30;73.60;;;;;;5091769;28;20067;-52
2021/06/20 01:07:17;;;;;;;16.98;13.98;;;28.30;73.20;;;;;;5084004;28;20036;-51
2021/06/20 01:10:03;;;;;;;15.73;13.90;;;28.40;72.80;;;;;;5098377;28;20514;-51
2021/06/20 01:12:48;;;;;;;17.95;14.18;;;28.40;72.70;;;;;;5104238;28;20035;-52
2021/06/20 01:15:34;;;;;;;19.90;14.20;;;28.40;73.10;;;;;;5101583;28;20406;-52
2021/06/20 01:18:19;;;;;;;13.88;12.23;;;28.30;73.50;;;;;;5096430;28;20547;-51
2021/06/20 01:21:05;;;;;;;14.88;12.35;;;28.20;74.40;;;;;;5095594;28;20038;-54
2021/06/20 01:23:49;;;;;;;19.52;13.73;;;28.00;75.20;;;;;;5095666;28;20026;-54
2021/06/20 01:26:33;;;;;;;17.63;13.70;;;27.60;76.20;;;;;;5095603;28;20034;-52
2021/06/20 01:29:19;;;;;;;15.57;12.70;;;27.30;77.40;;;;;;5095547;28;20031;-55
2021/06/20 01:32:04;;;;;;;15.02;13.35;;;27.10;77.90;;;;;;5074015;28;20036;-53
2021/06/20 01:34:48;;;;;;;15.45;13.85;;;27.10;78.80;;;;;;5082519;28;20474;-57
2021/06/20 01:37:32;;;;;;;;;;;27.10;78.90;;;;;;5095827;28;20078;-49
2021/06/20 01:40:18;;;;;;;14.65;13.15;;;27.10;79.40;;;;;;5095825;28;19938;-53
2021/06/20 01:43:02;;;;;;;15.68;14.07;;;27.00;79.20;;;;;;5095262;28;20468;-53
2021/06/20 01:45:46;;;;;;;;;;;26.90;79.40;;;;;;5095896;28;20514;-53
2021/06/20 01:48:31;;;;;;;17.90;13.70;;;26.60;80.30;;;;;;5095081;28;19918;-51
2021/06/20 01:51:15;;;;;;;19.35;12.85;;;26.50;80.50;;;;;;5095234;28;20116;-54
2021/06/20 01:53:59;;;;;;;14.18;12.68;;;26.40;81.10;;;;;;5095330;28;20494;-54
2021/06/20 01:56:43;;;;;;;;;;;26.10;81.80;;;;;;5092437;28;20135;-55
2021/06/20 01:59:27;;;;;;;19.55;12.80;;;26.00;82.40;;;;;;5095310;28;20283;-52
2021/06/20 02:02:12;;;;;;;15.90;12.65;;;26.20;82.10;;;;;;5083133;28;20051;-56
2021/06/20 02:04:56;;;;;;;13.93;12.40;;;26.40;81.40;;;;;;5091374;28;20081;-53
2021/06/20 02:07:41;;;;;;;15.80;13.20;;;26.50;80.90;;;;;;5093203;28;20027;-54
2021/06/20 02:10:24;;;;;;;14.73;12.35;;;26.70;80.50;;;;;;5077390;28;20482;-53
2021/06/20 02:13:08;;;;;;;13.77;12.43;;;26.80;80.20;;;;;;5088782;28;20169;-54
2021/06/20 02:15:53;;;;;;;;;;;26.90;79.80;;;;;;5095020;28;20395;-55
2021/06/20 02:18:37;;;;;;;16.33;12.57;;;27.00;79.70;;;;;;5094305;28;19957;-51
2021/06/20 02:21:21;;;;;;;18.92;13.15;;;27.10;79.60;;;;;;5093944;28;20070;-49
2021/06/20 02:24:05;;;;;;;17.25;12.88;;;27.00;79.70;;;;;;5094241;28;20066;-54
2021/06/20 02:26:49;;;;;;;19.40;13.90;;;27.00;80.00;;;;;;5094566;28;20085;-51
2021/06/20 02:29:34;;;;;;;14.88;13.20;;;27.10;80.30;;;;;;5093970;28;20089;-51
2021/06/20 02:32:20;;;;;;;15.73;12.77;;;27.00;80.40;;;;;;5089453;28;20113;-54
2021/06/20 02:35:05;;;;;;;17.90;12.50;;;27.00;80.70;;;;;;5095080;28;20088;-54
2021/06/20 02:37:52;;;;;;;13.82;12.52;;;27.00;80.50;;;;;;5094809;28;20031;-51
2021/06/20 02:40:36;;;;;;;16.35;13.35;;;27.00;80.60;;;;;;5094609;28;20094;-52
2021/06/20 02:43:20;;;;;;;;;;;26.90;80.70;;;;;;5095075;28;20050;-49
2021/06/20 02:46:04;;;;;;;18.77;13.85;;;26.90;80.80;;;;;;5094280;28;19911;-54
2021/06/20 02:48:49;;;;;;;16.55;12.88;;;26.90;81.00;;;;;;5093844;28;20093;-54
2021/06/20 02:51:33;;;;;;;15.10;13.52;;;27.00;80.90;;;;;;5094049;28;20031;-52
2021/06/20 02:54:17;;;;;;;16.02;13.95;;;27.00;80.80;;;;;;5095424;28;20086;-52
2021/06/20 02:57:01;;;;;;;;;;;27.20;80.60;;;;;;5095485;28;20039;-51
2021/06/20 02:59:47;;;;;;;19.90;16.33;;;27.20;80.40;;;;;;5094609;28;19949;-50
2021/06/20 03:02:31;;;;;;;21.40;17.70;;;27.20;80.40;;;;;;5093908;28;20154;-50
2021/06/20 03:05:16;;;;;;;22.95;20.00;;;27.20;80.40;;;;;;5093989;28;20111;-49
2021/06/20 03:08:00;;;;;;;20.58;17.90;;;27.30;80.30;;;;;;5093253;28;20066;-52
2021/06/20 03:10:44;;;;;;;;;;;27.30;80.20;;;;;;5093534;28;20133;-52
2021/06/20 03:13:29;;;;;;;19.35;17.52;;;27.30;80.40;;;;;;5093644;28;19953;-50
2021/06/20 03:16:15;;;;;;;21.80;17.75;;;27.30;80.50;;;;;;5082975;28;20101;-50
2021/06/20 03:18:59;;;;;;;21.83;17.98;;;27.30;80.30;;;;;;5086298;28;20051;-55
2021/06/20 03:21:43;;;;;;;19.77;17.73;;;27.30;80.10;;;;;;5092917;28;20584;-52
2021/06/20 03:24:33;;;;;;;20.30;18.20;;;27.40;79.90;;;;;;5093157;28;20088;-56
2021/06/20 03:27:19;;;;;;;21.15;19.05;;;27.50;79.80;;;;;;5088292;28;20066;-55
2021/06/20 03:30:04;;;;;;;24.40;18.65;;;27.50;79.60;;;;;;5086673;28;20058;-50
2021/06/20 03:32:48;;;;;;;22.52;18.95;;;27.50;79.40;;;;;;5090532;28;20102;-53
2021/06/20 03:35:31;;;;;;;20.75;18.65;;;27.60;79.20;;;;;;5080691;28;20085;-55
2021/06/20 03:38:15;;;;;;;;;;;27.60;79.00;;;;;;5093010;28;20039;-50
2021/06/20 03:41:00;;;;;;;20.40;18.23;;;27.60;79.00;;;;;;5093036;28;19915;-50
2021/06/20 03:43:44;;;;;;;22.10;18.60;;;27.60;79.00;;;;;;5092645;28;20293;-56
2021/06/20 03:46:28;;;;;;;20.95;18.95;;;27.60;78.90;;;;;;5093056;28;20039;-55
2021/06/20 03:49:12;;;;;;;21.92;19.42;;;27.60;78.90;;;;;;5092477;28;20042;-55
2021/06/20 03:51:56;;;;;;;21.98;19.60;;;27.60;79.20;;;;;;5092923;28;20043;-56
2021/06/20 03:54:40;;;;;;;;;;;27.40;79.20;;;;;;5093104;28;20183;-54
2021/06/20 03:57:24;;;;;;;21.67;18.90;;;27.40;79.30;;;;;;5092482;28;19934;-52
2021/06/20 04:00:10;;;;;;;;;;;27.30;79.40;;;;;;5086806;28;20400;-54
2021/06/20 04:02:54;;;;;;;21.20;19.10;;;27.30;79.50;;;;;;5092308;28;19911;-49
2021/06/20 04:05:38;;;;;;;;;;;27.30;79.60;;;;;;5092930;28;20047;-50
2021/06/20 04:08:22;;;;;;;23.50;20.13;;;27.30;79.60;;;;;;5089510;28;19977;-50
2021/06/20 04:11:06;;;;;;;;;;;27.30;79.50;;;;;;5080653;28;20043;-51
2021/06/20 04:13:50;;;;;;;22.05;19.85;;;27.30;79.70;;;;;;5092245;28;19954;-52
2021/06/20 04:16:34;;;;;;;21.42;19.38;;;27.30;79.70;;;;;;5089655;28;20423;-56
2021/06/20 04:19:18;;;;;;;21.75;19.65;;;27.30;79.50;;;;;;5076930;28;20039;-50
2021/06/20 04:22:03;;;;;;;21.50;19.35;;;27.30;79.20;;;;;;5092204;28;20116;-53
2021/06/20 04:24:47;;;;;;;22.67;20.33;;;27.40;79.10;;;;;;5092253;28;20169;-53
2021/06/20 04:27:31;;;;;;;23.50;20.88;;;27.30;79.20;;;;;;5091843;28;20154;-53
2021/06/20 04:30:21;;;;;;;22.00;19.92;;;27.30;79.20;;;;;;5092174;28;20058;-53
2021/06/20 04:33:05;;;;;;;22.38;20.23;;;27.40;78.80;;;;;;5085022;28;20036;-55
2021/06/20 04:35:51;;;;;;;23.42;20.27;;;27.40;78.70;;;;;;5091279;28;20522;-55
2021/06/20 04:38:37;;;;;;;22.42;20.38;;;27.40;78.10;;;;;;5091700;28;20132;-51
2021/06/20 04:41:22;;;;;;;21.45;19.45;;;27.50;77.80;;;;;;5075762;28;20416;-54
2021/06/20 04:47:15;;;;;;;23.23;20.77;;;27.50;77.30;;;;;;5091946;28;20035;-54
2021/06/20 04:49:59;;;;;;;22.33;19.55;;;27.50;77.00;;;;;;5091982;28;20111;-57
2021/06/20 04:52:44;;;;;;;21.90;19.90;;;27.60;76.80;;;;;;5091588;28;20027;-54
2021/06/20 04:55:28;;;;;;;21.10;19.27;;;27.60;76.70;;;;;;5092235;28;20026;-53
2021/06/20 04:58:12;;;;;;;;;;;27.70;76.20;;;;;;5092360;28;20138;-53
2021/06/20 05:00:56;;;;;;;21.23;19.02;;;27.80;75.90;;;;;;5091962;28;19915;-49
2021/06/20 05:03:41;;;;;;;;;;;27.90;75.50;;;;;;5092191;28;20089;-50
2021/06/20 05:06:25;;;;;;;20.83;18.83;;;27.90;75.20;;;;;;5088773;28;19954;-54
2021/06/20 05:09:09;;;;;;;21.40;19.27;;;28.00;74.90;;;;;;5086305;28;20078;-53
2021/06/20 05:11:53;;;;;;;20.35;18.42;;;28.00;74.50;;;;;;5091557;28;20081;-54
2021/06/20 05:14:43;;;;;;;19.95;17.77;;;28.10;74.40;;;;;;5091867;28;20540;-54
2021/06/20 05:17:27;;;;;;;19.25;17.33;;;28.10;74.10;;;;;;5088571;28;20097;-55
2021/06/20 05:20:11;;;;;;;;;;;28.10;74.20;;;;;;5092026;28;20031;-52
2021/06/20 05:22:55;;;;;;;19.50;17.65;;;28.10;73.80;;;;;;5090922;28;19915;-49
2021/06/20 05:25:39;;;;;;;19.83;17.85;;;28.10;74.30;;;;;;5091693;28;20443;-49
2021/06/20 05:28:23;;;;;;;;;;;28.10;73.70;;;;;;5080220;28;20027;-55
2021/06/20 05:31:07;;;;;;;21.25;19.05;;;28.00;73.90;;;;;;5091426;28;21609;-52
2021/06/20 05:33:51;;;;;;;19.55;17.38;;;28.00;74.00;;;;;;5091823;28;20054;-51
2021/06/20 05:36:35;;;;;;;19.55;17.55;;;27.90;74.00;;;;;;5091480;28;20047;-54
2021/06/20 05:39:19;;;;;;;19.63;17.63;;;27.80;74.10;;;;;;5091312;28;20062;-55
2021/06/20 05:42:03;;;;;;;;;;;27.50;75.30;;;;;;5091993;28;20500;-54
2021/06/20 05:44:48;;;;;;;19.48;17.58;;;27.40;75.60;;;;;;5076754;28;19927;-51
2021/06/20 05:47:32;;;;;;;19.75;17.85;;;27.50;75.60;;;;;;5095255;28;20117;-52
2021/06/20 05:50:16;;;;;;;20.25;18.10;;;27.50;75.50;;;;;;5094943;28;20536;-54
2021/06/20 05:53:01;;;;;;;19.05;17.05;;;27.60;75.20;;;;;;5095193;28;20035;-55
2021/06/20 05:55:45;;;;;;;;;;;27.60;74.90;;;;;;5080037;28;20054;-55
2021/06/20 05:58:29;;;;;;;19.25;17.45;;;27.70;74.40;;;;;;5095229;28;19953;-53
2021/06/20 06:01:13;;;;;;;;;;;27.70;74.60;;;;;;5095338;28;20059;-57
2021/06/20 06:03:57;;;;;;;18.98;16.70;;;27.80;74.20;;;;;;5094572;28;19935;-52
2021/06/20 06:06:41;;;;;;;18.95;16.92;;;27.70;74.20;;;;;;5094550;28;20450;-52
2021/06/20 06:09:25;;;;;;;17.67;16.17;;;27.80;74.10;;;;;;5086545;28;20051;-50
2021/06/20 06:12:09;;;;;;;18.90;16.90;;;27.70;74.40;;;;;;5094699;28;20619;-53
2021/06/20 06:14:55;;;;;;;17.95;16.05;;;27.60;74.40;;;;;;5092787;28;20043;-55
2021/06/20 06:17:39;;;;;;;17.85;16.15;;;27.60;74.60;;;;;;5093954;28;20073;-50
2021/06/20 06:20:23;;;;;;;17.63;16.10;;;27.70;74.50;;;;;;5078527;28;20117;-53
2021/06/20 06:23:10;;;;;;;18.58;16.70;;;27.80;74.70;;;;;;5092567;28;20053;-50
2021/06/20 06:25:54;;;;;;;18.33;16.48;;;27.80;74.90;;;;;;5095005;28;20114;-53
2021/06/20 06:28:38;;;;;;;18.13;16.10;;;27.90;74.90;;;;;;5091486;28;20087;-53
2021/06/20 06:31:22;;;;;;;17.52;15.95;;;27.80;75.10;;;;;;5091542;28;20576;-52
2021/06/20 06:34:07;;;;;;;;;;;27.80;74.60;;;;;;5072729;28;20051;-53
2021/06/20 06:36:52;;;;;;;18.45;16.45;;;27.90;74.30;;;;;;5091204;28;19919;-52
2021/06/20 06:39:36;;;;;;;17.10;15.30;;;28.00;74.20;;;;;;5095251;28;20555;-54
2021/06/20 06:42:25;;;;;;;17.65;16.13;;;28.00;73.50;;;;;;5094498;28;20093;-54
2021/06/20 06:45:11;;;;;;;16.63;14.98;;;27.90;73.70;;;;;;5075519;28;20519;-50
2021/06/20 06:47:56;;;;;;;17.10;15.30;;;27.90;73.90;;;;;;5057050;28;20035;-53
2021/06/20 06:50:40;;;;;;;18.95;14.77;;;27.90;73.60;;;;;;5064774;28;20047;-52
2021/06/20 06:53:24;;;;;;;;;;;27.90;73.70;;;;;;5094994;28;20034;-52
2021/06/20 06:56:09;;;;;;;17.38;14.70;;;27.90;73.60;;;;;;5093369;28;19961;-54
2021/06/20 06:58:53;;;;;;;15.43;14.13;;;28.10;73.20;;;;;;5093407;28;20043;-55
2021/06/20 07:01:37;;;;;;;15.63;14.23;;;28.30;72.80;;;;;;5093622;28;20537;-54
2021/06/20 07:04:21;;;;;;;;;;;28.20;72.60;;;;;;5093595;28;20043;-52
2021/06/20 07:07:05;;;;;;;16.13;14.27;;;28.30;72.30;;;;;;5093595;28;19960;-53
2021/06/20 07:09:49;;;;;;;16.73;15.32;;;28.40;72.00;;;;;;5086402;28;20043;-55
2021/06/20 07:12:33;;;;;;;15.60;14.20;;;28.50;71.70;;;;;;5093403;28;20449;-54
2021/06/20 07:15:18;;;;;;;16.48;14.98;;;28.70;71.40;;;;;;5093371;28;20045;-55
2021/06/20 07:18:03;;;;;;;16.20;14.70;;;28.70;71.40;;;;;;5093383;28;20042;-53
2021/06/20 07:20:49;;;;;;;16.95;15.25;;;28.90;70.70;;;;;;5093631;28;20034;-55
2021/06/20 07:23:34;;;;;;;17.17;15.38;;;29.10;70.50;;;;;;5093143;28;20464;-54
2021/06/20 07:26:18;;;;;;;;;;;29.20;69.50;;;;;;5094011;28;20023;-56
2021/06/20 07:29:03;;;;;;;16.45;14.70;;;29.20;69.90;;;;;;5086270;28;19966;-54
2021/06/20 07:31:47;;;;;;;19.70;13.23;;;29.30;70.10;;;;;;5072376;28;20097;-50
2021/06/20 07:34:31;;;;;;;15.05;13.35;;;29.40;70.30;;;;;;5081123;28;20031;-55
2021/06/20 07:37:15;;;;;;;17.80;13.48;;;29.30;69.00;;;;;;5092825;28;20081;-56
2021/06/20 07:40:00;;;;;;;17.52;14.00;;;29.10;69.50;;;;;;5085751;28;20135;-52
2021/06/20 07:42:45;;;;;;;19.38;13.65;;;28.90;70.50;;;;;;5092990;28;20074;-54
2021/06/20 07:45:30;;;;;;;19.15;13.68;;;29.00;70.10;;;;;;5091377;28;20043;-55
2021/06/20 07:48:15;;;;;;;21.95;13.38;;;29.10;69.80;;;;;;5074084;28;20128;-52
2021/06/20 07:50:59;;;;;;;20.05;14.00;;;29.10;69.10;;;;;;5089705;28;20031;-50
2021/06/20 07:53:43;;;;;;;;;;;28.70;69.90;;;;;;5093423;28;20069;-55
2021/06/20 07:56:27;;;;;;;22.48;13.38;;;29.00;69.70;;;;;;5092470;28;19962;-55
2021/06/20 07:59:12;;;;;;;21.13;13.68;;;28.80;69.90;;;;;;5092624;28;20039;-54
2021/06/20 08:01:56;;;;;;;19.02;13.88;;;28.80;69.70;;;;;;5092881;28;20039;-53
2021/06/20 08:04:40;;;;;;;;;;;28.70;70.30;;;;;;5092644;28;20195;-53
2021/06/20 08:07:24;;;;;;;19.63;14.18;;;28.70;70.10;;;;;;5079676;28;19962;-56
2021/06/20 08:10:09;;;;;;;22.65;13.32;;;28.90;70.10;;;;;;5089242;28;20100;-56
2021/06/20 08:12:53;;;;;;;22.10;12.48;;;28.80;69.40;;;;;;5093264;28;20053;-56
2021/06/20 08:15:37;;;;;;;;;;;28.80;69.70;;;;;;5089903;28;20043;-58
2021/06/20 08:18:21;;;;;;;15.60;12.27;;;28.90;69.20;;;;;;5093371;28;19914;-58
2021/06/20 08:21:05;;;;;;;16.83;12.73;;;28.80;69.40;;;;;;5074023;28;20507;-58
2021/06/20 08:29:00;;;;;;;16.65;10.98;;;28.70;68.70;;;;;;5014615;28;20050;-55
2021/06/20 08:31:45;;;;;;;16.52;11.30;;;28.60;69.20;;;;;;5017658;28;20499;-58
2021/06/20 08:34:30;;;;;;;18.48;11.82;;;28.40;69.40;;;;;;5012725;28;20663;-59
2021/06/20 08:37:14;;;;;;;17.67;10.77;;;28.60;69.70;;;;;;5026965;28;20036;-59
2021/06/20 08:39:58;;;;;;;15.35;11.30;;;28.50;69.60;;;;;;5032646;28;20045;-57
2021/06/20 08:42:42;;;;;;;15.65;12.30;;;28.50;70.10;;;;;;5017014;28;20041;-68
2021/06/20 08:45:27;;;;;;;18.48;12.57;;;28.40;71.50;;;;;;5017040;28;20052;-70
2021/06/20 08:48:14;;;;;;;24.65;11.57;;;28.50;70.90;;;;;;5020905;28;20049;-70
2021/06/20 08:50:58;;;;;;;20.65;12.60;;;28.60;70.10;;;;;;5024270;28;20092;-56
2021/06/20 08:53:42;;;;;;;;;;;28.70;70.40;;;;;;5033238;28;20045;-59
2021/06/20 08:56:27;;;;;;;19.02;12.02;;;28.80;69.70;;;;;;5032247;28;20430;-61
2021/06/20 08:59:12;;;;;;;17.75;11.55;;;28.60;70.60;;;;;;5031933;28;20448;-62
2021/06/20 09:01:57;;;;;;;18.98;13.23;;;28.90;69.30;;;;;;5032012;28;20044;-60
2021/06/20 09:04:41;;;;;;;;;;;28.80;69.40;;;;;;5032349;28;20105;-61
2021/06/20 09:07:44;;;;;;;15.20;11.15;;;29.00;69.40;;;;;;5031772;28;19932;-61
2021/06/20 09:10:31;;;;;;;17.10;11.10;;;29.00;68.90;;;;;;5022834;28;20075;-60
2021/06/20 09:13:16;;;;;;;20.38;10.93;;;29.00;69.20;;;;;;5032073;28;20506;-60
2021/06/20 09:16:03;;;;;;;21.70;10.10;;;29.20;69.20;;;;;;5051513;28;20040;-60
2021/06/20 09:18:51;;;;;;;16.25;10.88;;;29.20;69.00;;;;;;5046487;28;20506;-60
2021/06/20 09:21:36;;;;;;;18.45;10.45;;;29.20;68.80;;;;;;5031860;28;20089;-60
2021/06/20 09:24:20;;;;;;;;;;;29.30;69.00;;;;;;5028714;28;20411;-60
2021/06/20 09:27:05;;;;;;;15.18;9.63;;;29.40;68.60;;;;;;5032772;28;19971;-59
2021/06/20 09:29:50;;;;;;;15.15;9.00;;;29.40;67.30;;;;;;5033235;28;20052;-60
2021/06/20 09:32:34;;;;;;;;;;;29.40;68.40;;;;;;5036277;28;20108;-58
2021/06/20 09:35:18;;;;;;;16.42;9.63;;;29.40;67.80;;;;;;5030805;28;19928;-57
2021/06/20 09:38:02;;;;;;;;;;;29.70;68.10;;;;;;5032561;28;20049;-59
2021/06/20 09:40:47;;;;;;;16.08;9.45;;;29.70;67.00;;;;;;5032761;28;19921;-60
2021/06/20 09:43:33;;;;;;;16.77;9.27;;;29.70;66.30;;;;;;5036314;28;20582;-59
2021/06/20 09:46:17;;;;;;;16.98;9.00;;;29.80;66.10;;;;;;5034843;28;20072;-54
2021/06/20 09:49:01;;;;;;;;;;;29.80;65.30;;;;;;5033104;28;20134;-60
2021/06/20 09:51:53;;;;;;;16.40;8.50;;;29.70;65.70;;;;;;5036078;28;20366;-59
2021/06/20 09:54:59;;;;;;;17.67;9.13;;;29.70;64.70;;;;;;5025251;28;20048;-60
2021/06/20 09:57:45;;;;;;;19.58;9.55;;;29.80;64.40;;;;;;5027925;28;20052;-60
2021/06/20 10:00:41;;;;;;;16.75;7.95;;;29.70;64.60;;;;;;5034684;28;20039;-58
2021/06/20 10:03:26;;;;;;;15.35;8.05;;;29.70;64.10;;;;;;5037731;28;20040;-60
2021/06/20 10:06:10;;;;;;;;;;;29.80;64.40;;;;;;5035542;28;20033;-60
2021/06/20 10:08:55;;;;;;;12.73;7.28;;;30.00;62.30;;;;;;5032809;28;20007;-61
2021/06/20 10:11:38;;;;;;;;;;;29.90;62.50;;;;;;5035747;28;20104;-60
2021/06/20 10:14:23;;;;;;;13.05;7.18;;;29.80;62.20;;;;;;5019639;28;19920;-59
2021/06/20 10:17:08;;;;;;;;;;;29.70;62.70;;;;;;5021629;28;20064;-60
2021/06/20 10:19:56;;;;;;;11.32;7.00;;;30.00;62.70;;;;;;5036197;28;19911;-60
2021/06/20 10:22:47;;;;;;;14.50;7.18;;;30.30;62.30;;;;;;5033735;28;20032;-60
2021/06/20 10:25:39;;;;;;;11.05;6.55;;;30.10;60.40;;;;;;5034209;28;20057;-60
2021/06/20 10:28:31;;;;;;;12.32;6.43;;;29.80;60.30;;;;;;5033211;28;20032;-59
2021/06/20 10:31:15;;;;;;;16.30;6.32;;;30.00;60.40;;;;;;5034205;28;20108;-59
2021/06/20 10:34:18;;;;;;;12.02;6.55;;;30.10;59.80;;;;;;5034714;28;20044;-58
2021/06/20 10:37:06;;;;;;;8.50;5.70;;;30.10;60.60;;;;;;5034497;28;20561;-60
2021/06/20 10:39:52;;;;;;;11.18;6.35;;;30.20;59.00;;;;;;5034310;28;20044;-60
2021/06/20 10:42:38;;;;;;;13.52;6.43;;;30.20;59.30;;;;;;5035006;28;20036;-59
2021/06/20 10:45:33;;;;;;;15.02;6.45;;;30.30;58.30;;;;;;5019300;28;20138;-60
2021/06/20 10:48:20;;;;;;;12.32;5.70;;;30.10;58.70;;;;;;5019574;28;20097;-60
2021/06/20 10:51:19;;;;;;;13.30;6.82;;;30.30;59.80;;;;;;5028702;28;20080;-59
2021/06/20 10:54:04;;;;;;;10.70;5.88;;;30.40;59.10;;;;;;5032111;28;20037;-60
2021/06/20 10:57:04;;;;;;;8.50;5.43;;;30.40;58.70;;;;;;5023780;28;20811;-58
2021/06/20 10:59:57;;;;;;;14.07;6.05;;;30.40;59.80;;;;;;5019100;28;20118;-60
2021/06/20 11:02:41;;;;;;;10.00;6.60;;;30.40;59.80;;;;;;5027127;28;20088;-62
2021/06/20 11:05:25;;;;;;;11.75;7.03;;;30.40;60.30;;;;;;5033640;28;20092;-60
2021/06/20 11:08:11;;;;;;;14.10;6.85;;;30.60;60.00;;;;;;5033937;28;20175;-60
2021/06/20 11:11:08;;;;;;;16.50;7.18;;;30.70;59.10;;;;;;5033986;28;20301;-60
2021/06/20 11:13:55;;;;;;;16.40;7.25;;;30.70;59.90;;;;;;5034296;28;20436;-61
2021/06/20 11:16:41;;;;;;;11.88;7.13;;;30.70;58.30;;;;;;5034005;28;20138;-59
2021/06/20 11:19:29;;;;;;;11.02;7.03;;;30.80;58.30;;;;;;5034294;28;20105;-59
2021/06/20 11:22:14;;;;;;;9.07;6.57;;;30.80;58.80;;;;;;5032516;28;20492;-58
2021/06/20 11:24:59;;;;;;;11.93;7.63;;;30.90;58.70;;;;;;5033431;28;20096;-59
2021/06/20 11:27:43;;;;;;;13.73;7.70;;;31.10;58.70;;;;;;5029498;28;20033;-60
2021/06/20 11:30:27;;;;;;;10.43;7.47;;;31.30;58.70;;;;;;5033988;28;20554;-60
2021/06/20 11:33:26;;;;;;;15.25;7.72;;;31.50;58.20;;;;;;5033606;28;20060;-59
2021/06/20 11:36:12;;;;;;;15.77;6.93;;;31.40;57.50;;;;;;5018638;28;20037;-59
2021/06/20 11:39:05;;;;;;;11.75;7.30;;;31.30;58.30;;;;;;5033914;28;20068;-58
2021/06/20 11:41:51;;;;;;;11.07;7.10;;;31.10;58.00;;;;;;5033841;28;20084;-60
2021/06/20 11:44:35;;;;;;;12.45;6.75;;;30.90;58.10;;;;;;5032542;28;20040;-59
2021/06/20 11:47:27;;;;;;;17.30;7.43;;;31.10;58.00;;;;;;5018363;28;20071;-60
2021/06/20 11:50:17;;;;;;;10.70;6.95;;;31.40;57.80;;;;;;5033302;28;20052;-59
2021/06/20 11:53:09;;;;;;;13.13;7.45;;;31.50;58.10;;;;;;5032829;28;20037;-59
2021/06/20 11:55:53;;;;;;;13.00;6.97;;;31.60;57.00;;;;;;5032580;28;20037;-59
2021/06/20 11:58:44;;;;;;;13.85;7.35;;;31.20;57.50;;;;;;5032977;28;20024;-60
2021/06/20 12:01:49;;;;;;;11.43;7.40;;;31.10;58.70;;;;;;5032826;28;20037;-60
2021/06/20 12:04:34;;;;;;;9.38;5.97;;;31.00;57.70;;;;;;5032909;28;20116;-58
2021/06/20 12:07:18;;;;;;;13.65;6.05;;;31.00;53.90;;;;;;4997953;28;20432;-61
2021/06/20 12:10:02;;;;;;;8.00;5.60;;;31.00;52.20;;;;;;5029572;28;20495;-58
2021/06/20 12:13:04;;;;;;;9.30;5.25;;;31.10;52.60;;;;;;5032753;28;20076;-59
2021/06/20 12:15:59;;;;;;;12.98;5.70;;;31.20;53.00;;;;;;5033097;28;20387;-58
2021/06/20 12:18:43;;;;;;;9.02;5.28;;;31.20;53.10;;;;;;5032842;28;20060;-60
2021/06/20 12:21:30;;;;;;;11.73;5.90;;;31.20;52.00;;;;;;5033462;28;20033;-59
2021/06/20 12:24:15;;;;;;;11.57;6.95;;;31.40;52.20;;;;;;5032471;28;20541;-60
2021/06/20 12:26:59;;;;;;;13.60;6.25;;;31.60;53.40;;;;;;5032474;28;20044;-59
2021/06/20 12:29:43;;;;;;;10.23;5.78;;;31.50;53.30;;;;;;5024372;28;20037;-59
2021/06/20 12:32:33;;;;;;;10.82;6.20;;;31.40;54.10;;;;;;5032725;28;20036;-58
2021/06/20 12:35:30;;;;;;;9.63;6.07;;;31.30;54.30;;;;;;5032683;28;20052;-59
2021/06/20 12:38:21;;;;;;;13.05;6.78;;;31.30;53.70;;;;;;5033250;28;20164;-60
2021/06/20 12:41:17;;;;;;;11.15;6.15;;;31.20;54.50;;;;;;5032910;28;20044;-60
2021/06/20 12:44:07;;;;;;;9.60;5.65;;;31.20;55.40;;;;;;5032429;28;20068;-60
2021/06/20 12:46:52;;;;;;;10.95;5.78;;;31.20;54.70;;;;;;5032265;28;20049;-59
2021/06/20 12:49:38;;;;;;;9.13;4.82;;;31.20;53.90;;;;;;5031136;28;20535;-59
2021/06/20 12:52:30;;;;;;;8.45;5.30;;;31.10;53.40;;;;;;5032598;28;20085;-57
2021/06/20 12:55:15;;;;;;;7.97;4.90;;;31.10;53.00;;;;;;5034235;28;20111;-59
2021/06/20 12:58:02;;;;;;;8.77;5.00;;;30.90;52.00;;;;;;5036285;28;20064;-60
2021/06/20 13:01:00;;;;;;;9.63;5.22;;;30.80;52.80;;;;;;5034863;28;20402;-59
2021/06/20 13:03:44;;;;;;;9.55;5.20;;;30.90;53.00;;;;;;5036222;28;20076;-59
2021/06/20 13:06:32;;;;;;;10.32;4.78;;;31.00;53.50;;;;;;5036036;28;20084;-59
2021/06/20 13:09:17;;;;;;;6.90;5.43;;;30.90;53.20;;;;;;5036254;28;20029;-60
2021/06/20 13:12:01;;;;;;;7.32;5.28;;;30.90;54.10;;;;;;5036089;28;20106;-60
2021/06/20 13:14:46;;;;;;;8.63;5.28;;;31.00;54.50;;;;;;5036263;28;20176;-61
2021/06/20 13:17:30;;;;;;;9.15;5.57;;;31.00;54.70;;;;;;5035131;28;20095;-61
2021/06/20 13:20:15;;;;;;;9.07;5.18;;;31.00;55.30;;;;;;5034222;28;20467;-60
2021/06/20 13:23:03;;;;;;;9.40;5.18;;;31.00;55.40;;;;;;5035622;28;20055;-61
2021/06/20 13:25:51;;;;;;;9.23;5.57;;;31.00;55.70;;;;;;5036148;28;20101;-60
2021/06/20 13:28:35;;;;;;;10.82;5.72;;;30.90;55.90;;;;;;5035444;28;20084;-60
2021/06/20 13:31:21;;;;;;;11.45;6.38;;;30.70;56.10;;;;;;5033997;28;20041;-62
2021/06/20 13:34:05;;;;;;;10.38;5.22;;;30.70;56.10;;;;;;5035483;28;20048;-61
2021/06/20 13:36:49;;;;;;;9.65;5.97;;;30.70;56.10;;;;;;5035374;28;20091;-61
2021/06/20 13:39:34;;;;;;;7.70;6.05;;;30.90;55.70;;;;;;5036188;28;20448;-59
2021/06/20 13:42:18;;;;;;;7.72;5.38;;;31.20;55.20;;;;;;5035489;28;20091;-60
2021/06/20 13:45:05;;;;;;;9.48;4.97;;;31.50;55.20;;;;;;5034844;28;20120;-59
2021/06/20 13:47:51;;;;;;;7.85;5.28;;;31.80;55.20;;;;;;5017880;28;20044;-59
2021/06/20 13:50:35;;;;;;;7.82;4.93;;;32.00;54.70;;;;;;5031929;28;20092;-59
2021/06/20 13:53:19;;;;;;;6.80;5.65;;;32.00;54.60;;;;;;5034618;28;20048;-60
2021/06/20 13:56:04;;;;;;;11.80;4.72;;;32.10;54.50;;;;;;5034999;28;20036;-59
2021/06/20 13:58:48;;;;;;;6.68;4.85;;;32.00;54.30;;;;;;5024911;28;20119;-60
2021/06/20 14:01:32;;;;;;;6.70;4.95;;;31.90;54.70;;;;;;5035029;28;20490;-59
2021/06/20 14:04:17;;;;;;;9.45;5.18;;;31.80;54.20;;;;;;5017387;28;20037;-59
2021/06/20 14:07:02;;;;;;;9.38;5.45;;;31.80;53.30;;;;;;5033834;28;20570;-59
2021/06/20 14:09:46;;;;;;;9.88;5.72;;;31.80;53.20;;;;;;5034512;28;20088;-60
2021/06/20 14:12:31;;;;;;;10.93;5.28;;;31.60;54.60;;;;;;5034585;28;20060;-61
2021/06/20 14:15:17;;;;;;;5.97;4.55;;;31.60;55.50;;;;;;5033774;28;20037;-59
2021/06/20 14:18:02;;;;;;;8.13;4.93;;;31.70;55.20;;;;;;5034948;28;20091;-61
2021/06/20 14:20:47;;;;;;;9.30;5.15;;;31.60;54.20;;;;;;5035796;28;20045;-59
2021/06/20 14:23:31;;;;;;;10.40;4.82;;;31.50;54.70;;;;;;5022652;28;20730;-64
2021/06/20 14:26:15;;;;;;;14.32;8.32;;;31.20;53.70;;;;;;5033712;28;20053;-59